Decoded Metar for EPSC (SZCZECIN in POLAND) (IATA:SZZ) | Meteo·Mobile Aviation Weather
aviador You're here:

EPSC Decoded Metar

SZCZECIN in POLAND
Report Time2019-02-22 14:30:00
UTC Time2019-02-22 14:43:46
Flight Rules vfr VFR
Wind060° at 06 kt
W.Decomp.*RWY 13: 1.8 kt HW 5.7 kt LCW
W.Rank060° ranks 21
Current wind is above 060° avg. (5.2)
Visibility9999 m
Phenomena:N/A
Clouds:N/A
Expected CloudBase > 4,800 ft AGL from Temp-Dew spread
CeilingNone
Temp02°C (ISA -13)
Dew Point-10°C (41% RH)
AAT-3.2°C
QNH1041 hPa
Density Alt-2,474 ft
Elevation10 ft
Report Wrong Elevation
Raw Report
EPSC 221430Z 06006KT 360V110 CAVOK 02/M10 Q1041=

Extra information for EPSC:More info

Metar Taf Metar & Taf Last 4 Metars F.Rules Stats Wind Profile Meteogram Temp Stats Airport Information Weather charts Add Link Nearby VenuesMetar ALERT Operation Metar Decoded Social comments